Time;durP1;ratioP1;P1;durP2;ratioP2;P2;SDS_P1;SDS_P2;PMS_P1;PMS_P2;Temp;Humidity;BMP_temperature;BMP_pressure;BME280_temperature;BME280_humidity;BME280_pressure;Samples;Min_cycle;Max_cycle;Signal;HPM_P1;HPM_P2
2022/05/06 00:01:45;;;;;;;21.27;11.27;;;;;;;8.94;78.25;100098.03;5012244;28;20030;-53
2022/05/06 00:04:11;;;;;;;17.02;12.10;;;;;;;8.95;78.00;100104.19;5022237;28;20092;-52
2022/05/06 00:06:36;;;;;;;22.20;12.50;;;;;;;8.95;78.10;100106.88;5009242;28;20456;-53
2022/05/06 00:09:03;;;;;;;18.88;12.07;;;;;;;8.91;78.21;100100.28;4990306;28;20040;-51
2022/05/06 00:11:29;;;;;;;22.08;12.13;;;;;;;8.84;78.71;100101.16;4975246;28;20033;-51
2022/05/06 00:13:54;;;;;;;19.00;12.10;;;;;;;8.87;78.81;100099.09;5006144;28;20609;-50
2022/05/06 00:16:20;;;;;;;24.50;12.43;;;;;;;8.86;80.31;100098.25;5022778;28;20026;-53
2022/05/06 00:18:46;;;;;;;23.48;13.57;;;;;;;8.78;79.04;100090.47;5016637;28;20026;-52
2022/05/06 00:21:14;;;;;;;19.65;12.02;;;;;;;8.72;79.90;100102.81;5011897;28;20069;-50
2022/05/06 00:23:40;;;;;;;21.27;12.55;;;;;;;8.70;79.49;100099.53;5008364;28;20235;-51
2022/05/06 00:26:05;;;;;;;20.98;11.93;;;;;;;8.69;79.41;100113.13;4990901;28;20832;-54
2022/05/06 00:28:31;;;;;;;20.52;12.15;;;;;;;8.61;80.22;100112.31;5021021;28;20471;-52
2022/05/06 00:31:02;;;;;;;21.20;12.55;;;;;;;8.57;81.15;100104.91;5015564;28;20062;-53
2022/05/06 00:33:29;;;;;;;26.05;13.15;;;;;;;8.56;79.72;100108.59;5008312;28;20034;-50
2022/05/06 00:35:57;;;;;;;18.48;11.60;;;;;;;8.49;80.50;100107.81;5009256;28;20095;-52
2022/05/06 00:38:23;;;;;;;25.15;12.40;;;;;;;8.45;80.77;100106.56;5015295;28;20144;-53
2022/05/06 00:40:48;;;;;;;19.25;12.70;;;;;;;8.45;80.88;100106.56;4999460;28;20163;-50
2022/05/06 00:43:14;;;;;;;23.27;11.90;;;;;;;8.46;80.14;100106.34;5026268;28;20688;-54
2022/05/06 00:45:55;;;;;;;21.90;12.48;;;;;;;8.41;79.90;100109.66;5008160;28;20038;-53
2022/05/06 00:48:22;;;;;;;24.02;12.25;;;;;;;8.38;79.94;100104.66;5005438;28;20034;-53
2022/05/06 00:50:48;;;;;;;19.70;11.63;;;;;;;8.34;80.49;100106.13;4960957;28;20574;-52
2022/05/06 00:53:13;;;;;;;18.92;12.10;;;;;;;8.45;79.99;100112.72;4993314;28;20025;-51
2022/05/06 00:55:39;;;;;;;29.50;12.50;;;;;;;8.42;79.96;100105.94;5012270;28;20196;-52
2022/05/06 00:58:05;;;;;;;23.25;12.82;;;;;;;8.57;80.36;100111.06;5014513;28;20112;-51
2022/05/06 01:00:30;;;;;;;20.35;11.95;;;;;;;8.55;81.43;100106.97;5010599;28;20388;-53
2022/05/06 01:02:56;;;;;;;24.30;12.70;;;;;;;8.40;80.29;100116.00;5012829;28;20140;-52
2022/05/06 01:05:22;;;;;;;23.17;12.30;;;;;;;8.32;80.48;100113.53;5008325;28;20044;-53
2022/05/06 01:07:49;;;;;;;20.48;12.27;;;;;;;8.24;81.53;100115.56;5008067;28;20030;-50
2022/05/06 01:10:17;;;;;;;22.05;12.88;;;;;;;8.30;80.83;100114.75;4994218;28;20038;-50
2022/05/06 01:12:42;;;;;;;20.50;13.60;;;;;;;8.48;79.81;100116.81;5000989;28;20036;-51
2022/05/06 01:15:22;;;;;;;20.58;13.02;;;;;;;8.48;79.99;100116.81;5007921;28;20038;-50
2022/05/06 01:17:48;;;;;;;23.45;12.60;;;;;;;8.56;80.00;100113.94;5016445;28;20140;-53
2022/05/06 01:20:17;;;;;;;24.13;13.15;;;;;;;8.26;80.73;100119.66;5002152;28;20025;-51
2022/05/06 01:22:45;;;;;;;25.58;13.10;;;;;;;8.25;81.15;100122.56;5000697;28;20031;-52
2022/05/06 01:25:11;;;;;;;22.13;12.30;;;;;;;8.16;81.38;100114.75;5016576;28;20040;-51
2022/05/06 01:27:38;;;;;;;24.88;13.45;;;;;;;8.10;81.95;100120.09;5007698;28;20223;-52
2022/05/06 01:30:04;;;;;;;28.27;14.18;;;;;;;8.09;81.64;100118.47;4999834;28;20033;-53
2022/05/06 01:32:30;;;;;;;20.38;13.38;;;;;;;8.19;80.90;100121.53;5013979;28;20044;-51
2022/05/06 01:34:56;;;;;;;26.08;13.82;;;;;;;8.05;81.70;100123.38;4981230;28;20038;-50
2022/05/06 01:37:22;;;;;;;23.67;13.05;;;;;;;7.99;82.49;100117.00;4978794;28;20022;-53
2022/05/06 01:39:51;;;;;;;23.40;13.00;;;;;;;7.91;82.14;100114.53;4989447;28;20072;-51
2022/05/06 01:42:17;;;;;;;21.63;13.23;;;;;;;7.99;83.08;100124.19;5005796;28;20112;-51
2022/05/06 01:44:44;;;;;;;26.42;13.88;;;;;;;7.93;82.66;100122.31;5013258;28;20046;-51
2022/05/06 01:47:16;;;;;;;25.65;13.73;;;;;;;8.06;82.50;100118.84;4996384;28;20121;-53
2022/05/06 01:49:42;;;;;;;23.42;13.07;;;;;;;8.02;82.69;100113.09;4963220;28;20169;-53
2022/05/06 01:52:08;;;;;;;24.65;13.60;;;;;;;8.24;81.73;100115.56;4988953;28;20736;-50
2022/05/06 01:54:33;;;;;;;19.85;13.00;;;;;;;7.96;82.48;100120.09;4989321;28;20125;-53
2022/05/06 01:57:00;;;;;;;20.58;13.05;;;;;;;7.35;84.67;100112.13;4999129;28;20022;-53
2022/05/06 01:59:25;;;;;;;20.60;12.85;;;;;;;7.29;84.69;100115.59;5007045;28;20026;-53
2022/05/06 02:01:51;;;;;;;26.67;13.73;;;;;;;7.21;85.11;100115.75;5019751;28;20116;-53
2022/05/06 02:07:01;;;;;;;27.17;14.52;;;;;;;7.24;86.17;100112.69;5004854;28;20090;-53
2022/05/06 02:09:26;;;;;;;26.67;14.02;;;;;;;7.21;86.39;100115.75;5013531;28;20443;-53
2022/05/06 02:11:53;;;;;;;28.88;14.35;;;;;;;7.34;86.45;100108.63;5013426;28;20117;-52
2022/05/06 02:14:19;;;;;;;23.63;13.90;;;;;;;7.53;85.24;100115.03;5001128;28;20329;-51
2022/05/06 02:16:45;;;;;;;27.15;14.63;;;;;;;7.45;87.25;100123.22;4998627;28;20026;-53
2022/05/06 02:19:10;;;;;;;25.65;15.15;;;;;;;7.45;86.62;100123.22;5007083;28;20032;-51
2022/05/06 02:21:36;;;;;;;28.15;14.38;;;;;;;7.34;86.25;100121.97;5010156;28;20342;-50
2022/05/06 02:24:02;;;;;;;26.20;15.00;;;;;;;7.29;86.58;100129.75;5011015;28;20031;-53
2022/05/06 02:26:27;;;;;;;28.13;15.00;;;;;;;7.16;86.06;100118.19;4990321;28;20038;-52
2022/05/06 02:28:53;;;;;;;22.25;14.18;;;;;;;7.06;87.40;100119.41;5012008;28;20384;-52
2022/05/06 02:34:02;;;;;;;23.60;14.57;;;;;;;7.17;87.45;100117.19;4996424;28;20105;-54
2022/05/06 02:36:29;;;;;;;28.40;15.25;;;;;;;7.18;88.42;100122.31;5006559;28;20253;-52
2022/05/06 02:38:55;;;;;;;31.42;15.55;;;;;;;6.99;87.31;100126.53;5006614;28;20439;-50
2022/05/06 02:41:20;;;;;;;28.10;15.40;;;;;;;6.82;87.54;100118.03;5013525;28;20091;-50
2022/05/06 02:43:46;;;;;;;29.65;15.45;;;;;;;7.03;89.14;100125.09;5011370;28;20045;-53
2022/05/06 02:46:12;;;;;;;26.90;15.45;;;;;;;6.95;88.75;100122.59;5017862;28;20046;-52
2022/05/06 02:48:38;;;;;;;25.83;15.77;;;;;;;6.79;88.35;100128.25;5011465;28;20025;-51
2022/05/06 02:51:04;;;;;;;29.92;16.08;;;;;;;6.80;90.23;100127.25;5008615;28;20037;-51
2022/05/06 02:53:30;;;;;;;33.35;17.65;;;;;;;6.73;89.59;100123.72;5015058;28;20021;-51
2022/05/06 02:55:55;;;;;;;28.80;15.73;;;;;;;6.65;89.61;100120.19;5014046;28;20472;-52
2022/05/06 02:58:21;;;;;;;31.60;17.63;;;;;;;6.70;90.80;100120.41;5012411;28;20032;-52
2022/05/06 03:00:46;;;;;;;32.60;17.30;;;;;;;6.88;90.98;100121.75;4998949;28;20072;-50
2022/05/06 03:03:12;;;;;;;36.60;18.70;;;;;;;6.88;89.68;100121.75;5013466;28;20076;-50
2022/05/06 03:05:37;;;;;;;42.72;18.50;;;;;;;6.99;91.65;100115.88;5006235;28;20393;-50
2022/05/06 03:08:03;;;;;;;32.72;18.27;;;;;;;7.13;92.06;100119.41;5009266;28;20389;-50
2022/05/06 03:10:29;;;;;;;38.22;19.65;;;;;;;7.32;91.95;100108.00;4991507;28;20732;-53
2022/05/06 03:12:58;;;;;;;41.55;19.92;;;;;;;7.22;87.99;100122.75;5023092;28;20033;-51
2022/05/06 03:15:24;;;;;;;41.15;17.30;;;;;;;7.20;91.77;100117.59;5012103;28;20030;-51
2022/05/06 03:17:51;;;;;;;41.00;21.33;;;;;;;7.14;90.39;100113.09;4988362;28;20041;-50
2022/05/06 03:20:16;;;;;;;43.40;22.75;;;;;;;7.07;89.60;100114.88;5002774;28;20506;-52
2022/05/06 03:22:45;;;;;;;35.83;21.50;;;;;;;7.00;91.29;100114.84;5017490;28;20045;-52
2022/05/06 03:25:11;;;;;;;39.42;18.45;;;;;;;6.39;88.03;100109.31;5005915;28;20072;-53
2022/05/06 03:30:21;;;;;;;36.70;18.35;;;;;;;6.05;89.93;100105.59;5005813;28;20041;-52
2022/05/06 03:32:50;;;;;;;34.25;17.50;;;;;;;5.88;90.99;100104.97;5011860;28;20026;-53
2022/05/06 03:35:17;;;;;;;37.17;19.00;;;;;;;5.80;91.82;100108.59;5008350;28;20026;-49
2022/05/06 03:37:44;;;;;;;33.55;19.17;;;;;;;5.87;92.85;100102.53;5007629;28;20448;-51
2022/05/06 03:40:10;;;;;;;36.08;20.30;;;;;;;6.04;93.63;100111.91;5014948;28;20033;-51
2022/05/06 03:42:36;;;;;;;39.22;20.35;;;;;;;6.08;94.44;100107.03;5018094;28;20028;-50
2022/05/06 03:45:03;;;;;;;41.13;22.60;;;;;;;6.25;94.92;100108.41;5008026;28;20050;-50
2022/05/06 03:47:29;;;;;;;38.00;20.67;;;;;;;6.18;93.66;100111.00;5012174;28;20030;-52
2022/05/06 03:52:38;;;;;;;38.35;21.15;;;;;;;6.16;93.67;100118.38;5006134;28;20515;-50
2022/05/06 03:55:04;;;;;;;42.42;22.35;;;;;;;6.14;92.54;100112.44;5007176;28;20452;-51
2022/05/06 03:57:30;;;;;;;37.17;20.27;;;;;;;6.03;91.27;100120.91;4993022;28;20115;-52
2022/05/06 03:59:56;;;;;;;34.70;20.73;;;;;;;5.96;91.75;100123.50;5007427;28;20030;-52
2022/05/06 04:02:21;;;;;;;36.95;21.33;;;;;;;5.91;91.45;100117.09;5002370;28;20069;-50
2022/05/06 04:04:47;;;;;;;43.40;22.75;;;;;;;5.89;92.54;100127.09;5000305;28;20084;-51
2022/05/06 04:07:14;;;;;;;40.30;22.55;;;;;;;5.94;92.65;100124.72;5006087;28;20162;-53
2022/05/06 04:09:41;;;;;;;42.17;23.77;;;;;;;6.14;93.01;100131.06;4994199;28;20547;-51
2022/05/06 04:12:10;;;;;;;35.67;21.17;;;;;;;6.79;91.48;100134.41;5004071;28;20655;-52
2022/05/06 04:14:35;;;;;;;47.38;23.95;;;;;;;7.25;87.72;100133.00;5003184;28;20034;-50
2022/05/06 04:17:03;;;;;;;36.95;22.00;;;;;;;7.88;85.13;100136.28;5023397;28;20679;-52
2022/05/06 04:19:29;;;;;;;51.03;24.45;;;;;;;8.71;81.46;100137.75;5007353;28;20041;-52
2022/05/06 04:24:39;;;;;;;43.55;20.20;;;;;;;9.53;75.58;100141.63;5011678;28;20041;-51
2022/05/06 04:27:05;;;;;;;40.17;19.00;;;;;;;9.76;75.18;100145.63;4991580;28;20053;-51
2022/05/06 04:29:31;;;;;;;45.42;20.63;;;;;;;10.68;71.23;100146.00;4995488;28;20372;-52
2022/05/06 04:31:56;;;;;;;46.20;19.25;;;;;;;11.56;67.49;100152.91;5014770;28;20087;-52
2022/05/06 04:34:22;;;;;;;27.83;15.20;;;;;;;12.00;64.10;100153.56;5017988;28;20053;-53
2022/05/06 04:36:51;;;;;;;28.00;15.77;;;;;;;11.94;61.66;100163.34;5007405;28;20392;-52
2022/05/06 04:39:16;;;;;;;32.65;16.63;;;;;;;12.02;62.59;100164.91;5002333;28;20033;-52
2022/05/06 04:41:43;;;;;;;29.25;15.27;;;;;;;12.01;62.11;100163.28;4995699;28;20037;-51
2022/05/06 04:44:09;;;;;;;28.42;15.18;;;;;;;11.85;62.29;100170.88;5014394;28;20137;-50
2022/05/06 04:46:34;;;;;;;27.00;15.20;;;;;;;12.02;63.24;100175.66;5007890;28;20079;-51
2022/05/06 04:49:00;;;;;;;31.50;16.15;;;;;;;12.70;61.79;100175.22;5009713;28;20037;-53
2022/05/06 04:51:26;;;;;;;31.67;15.90;;;;;;;13.34;60.51;100183.34;5001213;28;20025;-52
2022/05/06 04:53:54;;;;;;;25.27;12.55;;;;;;;13.75;55.87;100183.34;5010102;28;20069;-54
2022/05/06 04:56:22;;;;;;;23.23;12.90;;;;;;;14.36;53.92;100183.66;5015151;28;20034;-54
2022/05/06 04:58:48;;;;;;;23.83;13.77;;;;;;;13.58;57.50;100188.72;4993499;28;20083;-53
2022/05/06 05:01:13;;;;;;;23.70;12.95;;;;;;;14.52;54.11;100192.81;4987730;28;20029;-54
2022/05/06 05:03:39;;;;;;;21.08;11.95;;;;;;;14.80;52.78;100195.47;5005859;28;20040;-51
2022/05/06 05:06:06;;;;;;;38.83;13.23;;;;;;;15.26;51.07;100190.72;5011278;28;20022;-52
2022/05/06 05:08:31;;;;;;;20.75;12.05;;;;;;;14.81;52.27;100197.09;4990462;28;20108;-50
2022/05/06 05:11:02;;;;;;;21.00;13.18;;;;;;;14.70;52.59;100200.69;5005657;28;20029;-51
2022/05/06 05:13:34;;;;;;;25.65;12.57;;;;;;;14.83;52.32;100197.69;5006716;28;20065;-53
2022/05/06 05:16:00;;;;;;;20.83;13.13;;;;;;;14.99;52.54;100203.28;5005639;28;20036;-53
2022/05/06 05:18:26;;;;;;;25.25;14.32;;;;;;;15.12;52.41;100202.94;5014205;28;20037;-51
2022/05/06 05:20:51;;;;;;;23.63;12.73;;;;;;;16.04;50.07;100214.09;5018584;28;20112;-52
2022/05/06 05:23:17;;;;;;;18.75;12.98;;;;;;;16.65;48.21;100213.81;5011595;28;20338;-50
2022/05/06 05:25:43;;;;;;;19.05;12.57;;;;;;;16.27;49.40;100218.38;5011178;28;20056;-50
2022/05/06 05:28:09;;;;;;;20.42;13.52;;;;;;;17.35;46.96;100218.13;5005210;28;20409;-50
2022/05/06 05:30:35;;;;;;;23.08;13.70;;;;;;;16.33;48.86;100222.78;5001814;28;20132;-51
2022/05/06 05:33:01;;;;;;;21.67;13.60;;;;;;;16.44;48.96;100213.66;5006732;28;20025;-52
2022/05/06 05:35:29;;;;;;;26.58;12.82;;;;;;;16.53;49.25;100222.97;5006869;28;20036;-53
2022/05/06 05:37:54;;;;;;;20.58;13.75;;;;;;;17.12;48.67;100218.53;4997858;28;20075;-51
2022/05/06 05:40:20;;;;;;;23.75;15.02;;;;;;;17.48;47.75;100216.03;5016707;28;20021;-52
2022/05/06 05:42:46;;;;;;;23.63;14.05;;;;;;;17.86;46.90;100223.78;5006570;28;20030;-50
2022/05/06 05:50:40;;;;;;;23.38;12.98;;;;;;;18.67;46.28;100216.03;5009180;28;20095;-51
2022/05/06 05:53:05;;;;;;;23.67;13.55;;;;;;;18.85;45.58;100215.53;4980346;28;20472;-50
2022/05/06 05:55:34;;;;;;;24.23;13.85;;;;;;;18.28;46.41;100217.38;5008872;28;20063;-51
2022/05/06 05:58:00;;;;;;;22.40;13.40;;;;;;;19.15;44.64;100222.00;5017633;28;20037;-52
2022/05/06 06:00:27;;;;;;;20.50;13.00;;;;;;;19.95;43.65;100222.00;5020203;28;20680;-51
2022/05/06 06:02:52;;;;;;;24.13;11.77;;;;;;;19.38;44.21;100223.28;5008860;28;20037;-51
2022/05/06 06:05:18;;;;;;;23.13;13.00;;;;;;;19.25;44.42;100219.25;5007572;28;20092;-50
2022/05/06 06:07:44;;;;;;;20.98;12.35;;;;;;;19.97;43.42;100227.16;5007535;28;20440;-52
2022/05/06 06:10:09;;;;;;;20.88;12.68;;;;;;;20.27;43.15;100226.16;5010760;28;20025;-52
2022/05/06 06:12:35;;;;;;;24.45;12.75;;;;;;;20.54;43.32;100224.88;5014570;28;20041;-52
2022/05/06 06:15:01;;;;;;;23.30;12.45;;;;;;;20.36;43.26;100223.63;5011943;28;20026;-53
2022/05/06 06:17:27;;;;;;;21.98;12.60;;;;;;;21.26;41.47;100231.31;4993999;28;20098;-51
2022/05/06 06:19:52;;;;;;;26.85;13.25;;;;;;;21.03;42.20;100226.66;5007280;28;20033;-54
2022/05/06 06:22:18;;;;;;;30.38;13.02;;;;;;;21.20;42.18;100232.47;4992175;28;20591;-52
2022/05/06 06:24:44;;;;;;;23.20;11.77;;;;;;;20.77;42.83;100229.63;5007260;28;20026;-53
2022/05/06 06:27:09;;;;;;;22.73;12.43;;;;;;;21.87;41.24;100226.25;5009334;28;20490;-51
2022/05/06 06:29:35;;;;;;;24.10;13.10;;;;;;;20.40;43.35;100230.97;5001462;28;20124;-53
2022/05/06 06:32:02;;;;;;;32.17;13.23;;;;;;;21.94;41.47;100229.41;5000148;28;20200;-53
2022/05/06 06:34:27;;;;;;;26.10;12.43;;;;;;;21.50;42.30;100231.34;5016870;28;20026;-52
2022/05/06 06:36:53;;;;;;;37.10;13.23;;;;;;;21.52;41.67;100236.53;5008300;28;20108;-52
2022/05/06 06:39:18;;;;;;;31.75;14.52;;;;;;;21.88;41.15;100233.34;4992245;28;20030;-53
2022/05/06 06:41:47;;;;;;;35.45;14.63;;;;;;;21.53;41.63;100238.94;4991261;28;20030;-53
2022/05/06 06:44:12;;;;;;;41.77;15.37;;;;;;;21.47;42.27;100242.03;5013811;28;20104;-53
2022/05/06 06:46:38;;;;;;;36.30;16.27;;;;;;;21.61;41.63;100248.38;5003078;28;20294;-53
2022/05/06 06:49:04;;;;;;;35.53;17.25;;;;;;;20.83;43.53;100244.81;4979712;28;20555;-52
2022/05/06 06:51:31;;;;;;;41.15;16.15;;;;;;;22.18;41.27;100240.28;5006786;28;20034;-53
2022/05/06 06:53:57;;;;;;;31.48;16.52;;;;;;;21.46;42.03;100235.75;4991927;28;20025;-53
2022/05/06 06:56:23;;;;;;;36.13;17.02;;;;;;;21.31;43.20;100239.41;4988839;28;20479;-52
2022/05/06 06:58:48;;;;;;;44.17;17.38;;;;;;;21.85;42.56;100231.19;5009508;28;20120;-52
2022/05/06 07:01:14;;;;;;;39.00;17.63;;;;;;;21.20;44.20;100234.38;5005128;28;20036;-53
2022/05/06 07:03:40;;;;;;;40.88;18.45;;;;;;;23.08;40.84;100234.78;4997445;28;20121;-53
2022/05/06 07:14:17;;;;;;;42.97;19.00;;;;;;;21.30;44.63;100248.72;5010201;28;20164;-52
2022/05/06 07:16:43;;;;;;;37.80;20.85;;;;;;;21.87;42.88;100239.91;5010303;28;20534;-52
2022/05/06 07:19:09;;;;;;;44.72;21.80;;;;;;;20.98;43.40;100245.78;5010635;28;20036;-53
2022/05/06 07:21:34;;;;;;;45.78;21.23;;;;;;;21.60;43.54;100245.97;4989558;28;20440;-53
2022/05/06 07:24:00;;;;;;;38.30;21.98;;;;;;;20.47;44.07;100242.34;5006386;28;20026;-50
2022/05/06 07:26:26;;;;;;;47.55;22.88;;;;;;;22.83;41.30;100234.09;4990173;28;20034;-51
2022/05/06 07:28:52;;;;;;;54.08;23.00;;;;;;;22.95;40.53;100245.38;5005875;28;20022;-53
2022/05/06 07:31:17;;;;;;;47.20;22.30;;;;;;;23.24;39.82;100244.34;5013851;28;20053;-51
2022/05/06 07:33:43;;;;;;;52.60;22.45;;;;;;;24.40;37.42;100244.13;5013460;28;20381;-52
2022/05/06 07:36:09;;;;;;;53.35;21.60;;;;;;;23.54;39.41;100242.09;5011042;28;20036;-52
2022/05/06 07:38:34;;;;;;;63.40;22.85;;;;;;;23.53;39.39;100244.03;4987981;28;20018;-53
2022/05/06 07:41:01;;;;;;;52.70;22.75;;;;;;;21.44;43.51;100242.59;5005698;28;20037;-52
2022/05/06 07:43:27;;;;;;;53.92;23.17;;;;;;;21.87;43.04;100239.91;5012411;28;20034;-53
2022/05/06 07:45:53;;;;;;;54.30;22.55;;;;;;;22.57;41.16;100241.94;5008273;28;20053;-53
2022/05/06 07:48:19;;;;;;;51.25;22.20;;;;;;;23.42;40.41;100237.97;5013586;28;20049;-53
2022/05/06 07:50:44;;;;;;;48.53;21.73;;;;;;;23.18;40.54;100235.41;5005964;28;20049;-52
2022/05/06 07:53:11;;;;;;;35.17;22.15;;;;;;;21.04;43.55;100231.00;5004297;28;20026;-52
2022/05/06 07:55:37;;;;;;;42.65;22.90;;;;;;;21.37;44.11;100234.75;5008320;28;20133;-52
2022/05/06 07:58:04;;;;;;;40.97;23.65;;;;;;;22.02;42.32;100234.25;4991011;28;20463;-51
2022/05/06 08:00:31;;;;;;;42.10;24.98;;;;;;;21.70;42.96;100241.19;4992391;28;20440;-51
2022/05/06 08:05:40;;;;;;;31.60;19.83;;;;;;;22.03;41.80;100235.03;5012948;28;20502;-50
2022/05/06 08:08:06;;;;;;;46.35;20.40;;;;;;;21.14;44.06;100235.53;4997908;28;20034;-51
2022/05/06 08:10:32;;;;;;;37.30;20.63;;;;;;;19.61;46.58;100230.81;5006792;28;20034;-50
2022/05/06 08:12:58;;;;;;;29.50;17.58;;;;;;;21.72;41.75;100225.34;5010337;28;20044;-52
2022/05/06 08:15:24;;;;;;;33.65;18.10;;;;;;;22.52;39.69;100229.16;5008134;28;20105;-53
2022/05/06 08:17:50;;;;;;;32.65;17.83;;;;;;;20.53;42.82;100239.59;5008883;28;20032;-51
2022/05/06 08:20:16;;;;;;;36.17;16.65;;;;;;;21.37;41.94;100236.63;5007893;28;20054;-53
2022/05/06 08:22:41;;;;;;;29.15;16.75;;;;;;;21.65;41.22;100235.81;5014242;28;20174;-52
2022/05/06 08:25:11;;;;;;;31.13;15.57;;;;;;;22.41;40.25;100238.59;5011091;28;20492;-50
2022/05/06 08:27:40;;;;;;;23.30;13.57;;;;;;;23.14;36.61;100234.41;5006883;28;20052;-51
2022/05/06 08:30:06;;;;;;;25.90;14.13;;;;;;;23.04;37.97;100240.88;5013558;28;20033;-52
2022/05/06 08:32:32;;;;;;;25.15;13.60;;;;;;;22.40;37.91;100237.00;5007123;28;20676;-51
2022/05/06 08:34:57;;;;;;;31.38;14.48;;;;;;;23.39;38.14;100235.84;5006379;28;20048;-50
2022/05/06 08:37:24;;;;;;;33.55;14.82;;;;;;;23.32;38.13;100232.69;5011829;28;20543;-50
2022/05/06 08:39:50;;;;;;;27.70;15.70;;;;;;;22.30;39.46;100228.97;5006458;28;20601;-52
2022/05/06 08:42:17;;;;;;;15.68;8.30;;;;;;;22.98;34.47;100224.84;5003835;28;20026;-52
2022/05/06 08:52:55;;;;;;;20.55;7.85;;;;;;;21.96;35.53;100219.03;4996357;28;20037;-53
2022/05/06 08:55:22;;;;;;;29.33;10.93;;;;;;;21.37;39.60;100226.56;4989891;28;20117;-51
2022/05/06 08:57:48;;;;;;;21.52;8.15;;;;;;;22.20;36.41;100223.66;5007470;28;20049;-51
2022/05/06 09:00:14;;;;;;;12.02;6.00;;;;;;;20.76;35.64;100217.06;5009558;28;20085;-51
2022/05/06 09:02:40;;;;;;;12.52;5.55;;;;;;;22.02;34.61;100217.88;5017768;28;20029;-52
2022/05/06 09:05:16;;;;;;;13.15;6.70;;;;;;;22.00;35.54;100220.06;5005470;28;20556;-53
2022/05/06 09:07:42;;;;;;;17.63;9.30;;;;;;;22.22;36.82;100224.97;5006390;28;20890;-52
2022/05/06 09:10:14;;;;;;;16.08;8.82;;;;;;;23.21;34.42;100220.31;5008732;28;20065;-53
2022/05/06 09:12:46;;;;;;;22.85;9.35;;;;;;;20.80;38.20;100218.13;5007584;28;20034;-52
2022/05/06 09:18:00;;;;;;;19.48;8.75;;;;;;;22.32;37.32;100218.56;5006457;28;20231;-52
2022/05/06 09:20:26;;;;;;;22.05;8.07;;;;;;;22.73;36.30;100223.34;5009424;28;20471;-53
2022/05/06 09:22:52;;;;;;;20.30;8.20;;;;;;;22.99;34.65;100221.81;5010999;28;20125;-51
2022/05/06 09:25:59;;;;;;;14.43;8.15;;;;;;;21.79;36.58;100221.44;5013760;28;20492;-52
2022/05/06 09:28:26;;;;;;;21.33;8.48;;;;;;;22.85;34.41;100217.41;5014134;28;20034;-53
2022/05/06 09:31:08;;;;;;;11.40;7.15;;;;;;;21.43;36.00;100216.44;5010732;28;20030;-51
2022/05/06 09:33:40;;;;;;;20.20;7.05;;;;;;;23.48;33.62;100206.66;5006577;28;20025;-53
2022/05/06 09:36:31;;;;;;;12.38;5.15;;;;;;;23.64;32.43;100212.63;5012289;28;20030;-53
2022/05/06 09:39:07;;;;;;;14.23;6.03;;;;;;;22.07;33.80;100200.59;4994996;28;20088;-52
2022/05/06 09:41:33;;;;;;;10.88;5.25;;;;;;;23.24;32.42;100200.59;5004417;28;20053;-50
2022/05/06 09:43:59;;;;;;;9.95;4.88;;;;;;;22.69;33.71;100205.91;5005157;28;20064;-53
2022/05/06 09:46:25;;;;;;;13.43;5.93;;;;;;;22.97;33.74;100204.91;5007488;28;20018;-53
2022/05/06 09:48:57;;;;;;;11.40;5.43;;;;;;;23.52;33.83;100204.13;5001208;28;20022;-51
2022/05/06 09:51:26;;;;;;;11.32;5.20;;;;;;;22.27;32.64;100211.25;5004838;28;20043;-50
2022/05/06 09:53:53;;;;;;;12.60;5.95;;;;;;;21.16;35.10;100214.25;5013191;28;20018;-52
2022/05/06 09:56:20;;;;;;;12.52;5.40;;;;;;;22.66;35.09;100206.53;4993904;28;20076;-52
2022/05/06 09:58:46;;;;;;;10.02;5.68;;;;;;;23.18;34.27;100201.78;4979101;28;20037;-49
2022/05/06 10:01:13;;;;;;;15.85;6.35;;;;;;;22.47;34.36;100206.59;5008106;28;20338;-52
2022/05/06 10:03:39;;;;;;;6.82;4.18;;;;;;;22.17;31.84;100195.78;5006714;28;20408;-49
2022/05/06 10:06:08;;;;;;;7.50;4.03;;;;;;;21.21;35.28;100195.91;5016675;28;20112;-50
2022/05/06 10:08:34;;;;;;;11.25;4.60;;;;;;;21.01;35.07;100196.13;4978345;28;20303;-51
2022/05/06 10:11:00;;;;;;;8.82;4.43;;;;;;;22.71;33.06;100193.56;4973047;28;20029;-52
2022/05/06 10:13:29;;;;;;;12.93;4.70;;;;;;;22.03;33.86;100189.44;4985248;28;20065;-53
2022/05/06 10:15:55;;;;;;;9.50;4.25;;;;;;;22.78;32.74;100193.19;5007998;28;20026;-53
2022/05/06 10:18:44;;;;;;;9.80;3.78;;;;;;;22.89;33.03;100197.38;4985213;28;20550;-53
2022/05/06 10:21:13;;;;;;;8.97;3.70;;;;;;;23.56;31.47;100190.63;4999763;28;20111;-53
2022/05/06 10:23:51;;;;;;;7.27;3.60;;;;;;;22.33;32.84;100192.84;5008779;28;20623;-53
2022/05/06 10:26:36;;;;;;;7.15;4.13;;;;;;;21.54;33.70;100191.47;4986068;28;20116;-53
2022/05/06 10:34:31;;;;;;;4.60;2.53;;;;;;;22.65;30.50;100183.84;4995731;28;20371;-53
2022/05/06 10:37:00;;;;;;;6.88;2.40;;;;;;;23.63;30.05;100180.88;5005431;28;20033;-52
2022/05/06 10:39:32;;;;;;;9.32;3.10;;;;;;;22.51;32.42;100183.81;4997634;28;20086;-51
2022/05/06 10:42:00;;;;;;;7.50;2.90;;;;;;;23.76;31.06;100181.22;5005969;28;20037;-52
2022/05/06 10:44:45;;;;;;;4.65;2.15;;;;;;;22.40;29.08;100177.72;5002367;28;20442;-53
2022/05/06 10:47:13;;;;;;;4.13;2.17;;;;;;;22.53;30.64;100167.94;5003625;28;20036;-54
2022/05/06 10:49:39;;;;;;;4.63;2.00;;;;;;;21.64;31.41;100170.63;5005924;28;20500;-52
2022/05/06 10:52:26;;;;;;;3.53;2.00;;;;;;;22.57;29.63;100166.25;5005319;28;20038;-51
2022/05/06 10:54:55;;;;;;;4.22;2.10;;;;;;;23.30;30.66;100161.06;5011341;28;20116;-53
2022/05/06 10:57:22;;;;;;;5.35;2.13;;;;;;;23.02;29.50;100155.59;5006816;28;20034;-50
2022/05/06 10:59:51;;;;;;;6.85;2.25;;;;;;;21.56;30.78;100152.19;5005457;28;20713;-53
2022/05/06 11:02:20;;;;;;;3.70;1.98;;;;;;;22.52;30.31;100163.59;5001700;28;20108;-50
2022/05/06 11:04:56;;;;;;;5.22;2.30;;;;;;;20.76;31.66;100148.16;5008726;28;20044;-53
2022/05/06 11:07:22;;;;;;;5.53;2.00;;;;;;;21.85;31.97;100149.34;5001460;28;20610;-50
2022/05/06 11:09:47;;;;;;;9.65;2.00;;;;;;;22.20;30.96;100155.41;5007793;28;20061;-51
2022/05/06 11:12:40;;;;;;;6.20;1.90;;;;;;;19.91;33.50;100154.81;5012235;28;20025;-52
2022/05/06 11:15:08;;;;;;;5.25;2.13;;;;;;;20.26;33.44;100156.47;5000101;28;20129;-53
2022/05/06 11:17:33;;;;;;;5.07;1.90;;;;;;;20.04;33.84;100146.00;5011753;28;20029;-52
2022/05/06 11:20:06;;;;;;;10.18;2.33;;;;;;;21.26;32.41;100146.78;5006281;28;20037;-54
2022/05/06 11:22:36;;;;;;;7.57;2.03;;;;;;;21.40;31.71;100143.41;5005947;28;20118;-50
2022/05/06 11:25:01;;;;;;;8.57;2.08;;;;;;;21.33;32.98;100143.72;5004971;28;20042;-53
2022/05/06 11:27:27;;;;;;;8.98;2.20;;;;;;;21.20;32.15;100139.78;5006641;28;20030;-52
2022/05/06 11:29:56;;;;;;;3.88;1.80;;;;;;;21.02;31.85;100148.72;4979997;28;20053;-50
2022/05/06 11:32:23;;;;;;;5.80;2.10;;;;;;;20.67;32.52;100139.81;4998456;28;20109;-50
2022/05/06 11:34:55;;;;;;;3.42;1.88;;;;;;;19.86;33.30;100149.41;5010107;28;20067;-52
2022/05/06 11:37:24;;;;;;;6.00;1.85;;;;;;;21.25;32.07;100130.75;5014505;28;20057;-50
2022/05/06 11:39:50;;;;;;;3.30;1.93;;;;;;;21.08;32.85;100139.38;5014560;28;20041;-51
2022/05/06 11:42:20;;;;;;;3.00;1.90;;;;;;;20.67;32.42;100132.47;5008385;28;20531;-53
2022/05/06 11:47:40;;;;;;;3.67;1.90;;;;;;;20.02;32.45;100121.81;5008287;28;20048;-52
2022/05/06 11:50:07;;;;;;;6.32;2.30;;;;;;;22.00;31.90;100119.09;5003570;28;20478;-51
2022/05/06 11:52:33;;;;;;;4.63;2.47;;;;;;;21.57;31.79;100119.16;5010773;28;20033;-51
2022/05/06 11:54:58;;;;;;;7.85;2.60;;;;;;;22.70;32.02;100111.91;4978226;28;20548;-52
2022/05/06 11:57:24;;;;;;;6.38;1.75;;;;;;;23.30;29.94;100109.13;5003862;28;20037;-53
2022/05/06 11:59:49;;;;;;;4.68;2.17;;;;;;;23.01;30.36;100104.78;4985762;28;20034;-54
2022/05/06 12:02:15;;;;;;;14.98;2.10;;;;;;;23.36;31.54;100102.41;4994714;28;20029;-50
2022/05/06 12:04:41;;;;;;;5.75;2.17;;;;;;;22.89;31.00;100095.41;4992126;28;20108;-52
2022/05/06 12:07:06;;;;;;;8.85;2.08;;;;;;;22.30;30.56;100109.63;5013108;28;20412;-53